createdAt,value
2022-10-23T00:00:43.592Z,100.00
2022-10-23T00:03:09.968Z,100.00
2022-10-23T00:05:40.697Z,100.00
2022-10-23T00:08:07.399Z,100.00
2022-10-23T00:10:34.458Z,100.00
2022-10-23T00:13:00.879Z,100.00
2022-10-23T00:15:27.468Z,100.00
2022-10-23T00:17:54.164Z,100.00
2022-10-23T00:20:21.777Z,100.00
2022-10-23T00:22:48.216Z,100.00
2022-10-23T00:25:16.323Z,100.00
2022-10-23T00:27:43.357Z,100.00
2022-10-23T00:30:10.931Z,100.00
2022-10-23T00:32:37.350Z,100.00
2022-10-23T00:35:04.001Z,100.00
2022-10-23T00:37:30.692Z,100.00
2022-10-23T00:39:57.022Z,100.00
2022-10-23T00:42:23.957Z,100.00
2022-10-23T00:44:50.284Z,100.00
2022-10-23T00:47:16.996Z,100.00
2022-10-23T00:49:43.476Z,100.00
2022-10-23T00:52:13.311Z,100.00
2022-10-23T00:54:43.206Z,100.00
2022-10-23T00:57:14.876Z,100.00
2022-10-23T00:59:41.659Z,100.00
2022-10-23T01:02:08.144Z,100.00
2022-10-23T01:04:34.946Z,100.00
2022-10-23T01:07:25.466Z,100.00
2022-10-23T01:10:03.533Z,100.00
2022-10-23T01:12:50.391Z,100.00
2022-10-23T01:15:23.319Z,100.00
2022-10-23T01:17:56.799Z,100.00
2022-10-23T01:20:44.949Z,100.00
2022-10-23T01:23:37.801Z,100.00
2022-10-23T01:26:47.725Z,100.00
2022-10-23T01:30:02.551Z,100.00
2022-10-23T01:32:45.561Z,100.00
2022-10-23T01:35:16.566Z,100.00
2022-10-23T01:37:46.829Z,100.00
2022-10-23T01:40:38.260Z,100.00
2022-10-23T01:43:10.642Z,100.00
2022-10-23T01:45:42.323Z,100.00
2022-10-23T01:48:14.085Z,100.00
2022-10-23T01:50:42.809Z,100.00
2022-10-23T01:53:09.536Z,100.00
2022-10-23T01:55:38.992Z,100.00
2022-10-23T01:58:08.435Z,100.00
2022-10-23T02:00:39.402Z,100.00
2022-10-23T02:03:07.317Z,100.00
2022-10-23T02:05:34.085Z,100.00
2022-10-23T02:08:01.211Z,100.00
2022-10-23T02:10:53.681Z,100.00
2022-10-23T02:13:38.258Z,100.00
2022-10-23T02:16:22.820Z,100.00
2022-10-23T02:18:55.700Z,100.00
2022-10-23T02:21:38.825Z,100.00
2022-10-23T02:24:14.009Z,100.00
2022-10-23T02:26:55.615Z,100.00
2022-10-23T02:29:38.885Z,100.00
2022-10-23T02:32:09.422Z,100.00
2022-10-23T02:34:36.201Z,100.00
2022-10-23T02:37:02.852Z,100.00
2022-10-23T02:39:29.739Z,100.00
2022-10-23T02:42:20.329Z,100.00
2022-10-23T02:45:08.827Z,100.00
2022-10-23T02:47:59.533Z,100.00
2022-10-23T02:50:52.159Z,100.00
2022-10-23T02:53:33.169Z,100.00
2022-10-23T02:56:18.484Z,100.00
2022-10-23T02:58:56.633Z,100.00
2022-10-23T03:01:29.130Z,100.00
2022-10-23T03:03:59.217Z,100.00
2022-10-23T03:06:26.041Z,100.00
2022-10-23T03:08:53.636Z,100.00
2022-10-23T03:11:20.308Z,100.00
2022-10-23T03:13:46.725Z,100.00
2022-10-23T03:16:13.072Z,100.00
2022-10-23T03:18:39.416Z,100.00
2022-10-23T03:21:05.763Z,100.00
2022-10-23T03:23:32.099Z,100.00
2022-10-23T03:25:58.462Z,100.00
2022-10-23T03:28:24.841Z,100.00
2022-10-23T03:30:51.752Z,100.00
2022-10-23T03:33:18.123Z,100.00
2022-10-23T03:35:44.661Z,100.00
2022-10-23T03:38:11.014Z,100.00
2022-10-23T03:40:37.366Z,100.00
2022-10-23T03:43:03.768Z,100.00
2022-10-23T03:45:30.875Z,100.00
2022-10-23T03:47:57.206Z,100.00
2022-10-23T03:50:23.599Z,100.00
2022-10-23T03:52:50.369Z,100.00
2022-10-23T03:55:17.003Z,100.00
2022-10-23T03:57:43.348Z,100.00
2022-10-23T04:00:10.303Z,100.00
2022-10-23T04:02:36.939Z,100.00
2022-10-23T04:05:03.599Z,100.00
2022-10-23T04:07:29.972Z,100.00
2022-10-23T04:09:56.383Z,100.00
2022-10-23T04:12:22.767Z,100.00
2022-10-23T04:14:49.115Z,100.00
2022-10-23T04:17:15.547Z,100.00
2022-10-23T04:19:41.894Z,100.00
2022-10-23T04:22:08.313Z,100.00
2022-10-23T04:24:34.707Z,100.00
2022-10-23T04:27:01.031Z,100.00
2022-10-23T04:29:29.368Z,100.00
2022-10-23T04:31:55.708Z,100.00
2022-10-23T04:34:22.147Z,100.00
2022-10-23T04:36:48.588Z,100.00
2022-10-23T04:39:15.012Z,100.00
2022-10-23T04:41:41.361Z,100.00
2022-10-23T04:44:08.167Z,100.00
2022-10-23T04:46:34.534Z,100.00
2022-10-23T04:49:00.957Z,100.00
2022-10-23T04:51:27.380Z,100.00
2022-10-23T04:53:53.726Z,100.00
2022-10-23T04:56:20.142Z,100.00
2022-10-23T04:58:46.488Z,100.00
2022-10-23T05:01:12.979Z,100.00
2022-10-23T05:03:39.441Z,100.00
2022-10-23T05:06:06.106Z,100.00
2022-10-23T05:08:32.684Z,100.00
2022-10-23T05:10:59.094Z,100.00
2022-10-23T05:13:25.422Z,100.00
2022-10-23T05:15:52.291Z,100.00
2022-10-23T05:18:33.180Z,100.00
2022-10-23T05:21:05.657Z,100.00
2022-10-23T05:23:36.330Z,100.00
2022-10-23T05:26:04.132Z,100.00
2022-10-23T05:28:30.783Z,100.00
2022-10-23T05:30:59.848Z,100.00
2022-10-23T05:33:28.048Z,100.00
2022-10-23T05:35:54.477Z,100.00
2022-10-23T05:38:21.605Z,100.00
2022-10-23T05:40:48.275Z,100.00
2022-10-23T05:43:14.622Z,100.00
2022-10-23T05:45:40.950Z,100.00
2022-10-23T05:48:11.265Z,100.00
2022-10-23T05:50:43.451Z,100.00
2022-10-23T05:53:10.826Z,100.00
2022-10-23T05:55:38.075Z,100.00
2022-10-23T05:58:05.075Z,100.00
2022-10-23T06:00:31.872Z,100.00
2022-10-23T06:03:03.042Z,100.00
2022-10-23T06:05:29.540Z,100.00
2022-10-23T06:07:59.701Z,100.00
2022-10-23T06:10:27.267Z,100.00
2022-10-23T06:12:53.719Z,100.00
2022-10-23T06:15:20.094Z,100.00
2022-10-23T06:17:46.556Z,100.00
2022-10-23T06:20:13.013Z,100.00
2022-10-23T06:22:39.401Z,100.00
2022-10-23T06:25:06.423Z,100.00
2022-10-23T06:27:32.769Z,100.00
2022-10-23T06:29:59.148Z,100.00
2022-10-23T06:32:25.489Z,100.00
2022-10-23T06:34:51.815Z,100.00
2022-10-23T06:37:18.183Z,100.00
2022-10-23T06:39:44.556Z,100.00
2022-10-23T06:42:11.026Z,100.00
2022-10-23T06:44:37.418Z,100.00
2022-10-23T06:47:04.035Z,100.00
2022-10-23T06:49:30.453Z,100.00
2022-10-23T06:51:56.791Z,100.00
2022-10-23T06:54:23.199Z,100.00
2022-10-23T06:56:49.634Z,100.00
2022-10-23T06:59:15.970Z,100.00
2022-10-23T07:01:42.519Z,100.00
2022-10-23T07:04:09.113Z,100.00
2022-10-23T07:06:35.443Z,100.00
2022-10-23T07:09:01.791Z,100.00
2022-10-23T07:11:28.138Z,100.00
2022-10-23T07:13:54.493Z,100.00
2022-10-23T07:16:23.479Z,100.00
2022-10-23T07:18:58.758Z,100.00
2022-10-23T07:21:30.172Z,100.00
2022-10-23T07:23:58.163Z,100.00
2022-10-23T07:26:24.699Z,100.00
2022-10-23T07:28:55.041Z,100.00
2022-10-23T07:31:28.132Z,100.00
2022-10-23T07:33:55.145Z,100.00
2022-10-23T07:36:21.674Z,100.00
2022-10-23T07:38:48.023Z,100.00
2022-10-23T07:41:15.467Z,100.00
2022-10-23T07:43:41.990Z,100.00
2022-10-23T07:46:09.813Z,100.00
2022-10-23T07:48:37.245Z,100.00
2022-10-23T07:51:08.484Z,100.00
2022-10-23T07:53:35.708Z,100.00
2022-10-23T07:56:05.335Z,100.00
2022-10-23T07:58:31.724Z,100.00
2022-10-23T08:01:00.591Z,100.00
2022-10-23T08:03:32.795Z,100.00
2022-10-23T08:06:00.273Z,100.00
2022-10-23T08:08:27.136Z,100.00
2022-10-23T08:10:55.061Z,100.00
2022-10-23T08:13:22.017Z,100.00
2022-10-23T08:15:50.279Z,100.00
2022-10-23T08:18:17.335Z,100.00
2022-10-23T08:20:45.434Z,100.00
2022-10-23T08:23:13.268Z,100.00
2022-10-23T08:25:40.311Z,100.00
2022-10-23T08:28:07.903Z,100.00
2022-10-23T08:30:35.352Z,100.00
2022-10-23T08:33:06.423Z,100.00
2022-10-23T08:35:37.548Z,100.00
2022-10-23T08:38:05.279Z,100.00
2022-10-23T08:40:31.872Z,100.00
2022-10-23T08:43:10.227Z,100.00
2022-10-23T08:45:44.271Z,100.00
2022-10-23T08:48:23.269Z,100.00
2022-10-23T08:50:56.081Z,100.00
2022-10-23T08:53:30.177Z,100.00
2022-10-23T08:56:14.217Z,100.00
2022-10-23T08:58:56.743Z,100.00
2022-10-23T09:01:46.577Z,100.00
2022-10-23T09:04:15.221Z,100.00
2022-10-23T09:07:02.294Z,100.00
2022-10-23T09:10:02.922Z,100.00
2022-10-23T09:12:31.340Z,100.00
2022-10-23T09:15:31.283Z,100.00
2022-10-23T09:18:00.853Z,100.00
2022-10-23T09:20:34.308Z,100.00
2022-10-23T09:23:07.664Z,100.00
2022-10-23T09:25:38.337Z,99.89
2022-10-23T09:28:05.860Z,99.76
2022-10-23T09:30:39.616Z,99.67
2022-10-23T09:33:26.593Z,99.72
2022-10-23T09:36:05.138Z,99.79
2022-10-23T09:38:47.579Z,99.62
2022-10-23T09:41:17.460Z,99.64
2022-10-23T09:43:44.120Z,99.51
2022-10-23T09:46:11.853Z,99.64
2022-10-23T09:48:39.752Z,99.64
2022-10-23T09:51:17.418Z,99.42
2022-10-23T09:54:00.731Z,99.37
2022-10-23T09:56:34.832Z,99.50
2022-10-23T09:59:26.923Z,98.97
2022-10-23T10:01:58.985Z,98.93
2022-10-23T10:04:37.971Z,98.74
2022-10-23T10:07:15.484Z,98.22
2022-10-23T10:09:43.227Z,97.97
2022-10-23T10:12:30.212Z,97.95
2022-10-23T10:15:21.777Z,97.85
2022-10-23T10:18:20.659Z,97.44
2022-10-23T10:21:16.075Z,97.07
2022-10-23T10:23:42.329Z,96.62
2022-10-23T10:29:45.667Z,96.24
2022-10-23T10:32:32.070Z,96.06
2022-10-23T10:35:13.402Z,95.75
2022-10-23T10:38:01.802Z,95.70
2022-10-23T10:40:34.706Z,94.72
2022-10-23T10:43:32.187Z,94.64
2022-10-23T10:46:36.388Z,94.61
2022-10-23T10:49:34.701Z,94.42
2022-10-23T10:52:13.687Z,94.05
2022-10-23T10:55:04.937Z,93.61
2022-10-23T10:57:33.758Z,94.12
2022-10-23T11:00:22.395Z,93.91
2022-10-23T11:02:57.894Z,94.13
2022-10-23T11:05:38.862Z,93.33
2022-10-23T11:08:27.762Z,93.34
2022-10-23T11:11:02.980Z,92.99
2022-10-23T11:13:36.226Z,92.24
2022-10-23T11:16:23.659Z,92.39
2022-10-23T11:19:16.125Z,92.36
2022-10-23T11:22:22.564Z,92.04
2022-10-23T11:25:28.600Z,92.79
2022-10-23T11:28:13.176Z,92.26
2022-10-23T11:30:59.439Z,92.42
2022-10-23T11:33:25.712Z,91.80
2022-10-23T11:36:06.474Z,91.96
2022-10-23T11:38:38.975Z,91.77
2022-10-23T11:41:25.391Z,91.62
2022-10-23T11:43:56.965Z,89.70
2022-10-23T11:46:23.292Z,89.34
2022-10-23T11:48:50.430Z,89.45
2022-10-23T11:51:35.642Z,89.57
2022-10-23T11:54:17.021Z,89.45
2022-10-23T11:57:13.392Z,88.13
2022-10-23T11:59:48.956Z,88.21
2022-10-23T12:02:38.610Z,87.64
2022-10-23T12:05:25.121Z,86.61
2022-10-23T12:07:57.612Z,86.10
2022-10-23T12:10:30.808Z,86.78
2022-10-23T12:13:04.181Z,86.18
2022-10-23T12:15:32.224Z,85.32
2022-10-23T12:18:14.801Z,85.48
2022-10-23T12:20:50.111Z,84.56
2022-10-23T12:23:25.647Z,84.55
2022-10-23T12:26:26.141Z,84.30
2022-10-23T12:29:44.053Z,84.16
2022-10-23T12:32:48.911Z,83.83
2022-10-23T12:35:18.476Z,84.17
2022-10-23T12:37:57.346Z,84.51
2022-10-23T12:40:29.791Z,83.70
2022-10-23T12:42:59.298Z,83.55
2022-10-23T12:45:46.083Z,84.56
2022-10-23T12:48:21.365Z,84.47
2022-10-23T12:50:53.482Z,85.45
2022-10-23T12:53:22.680Z,84.72
2022-10-23T12:55:56.058Z,84.14
2022-10-23T12:58:31.877Z,83.26
2022-10-23T13:01:01.247Z,83.49
2022-10-23T13:03:29.743Z,83.40
2022-10-23T13:05:58.738Z,83.11
2022-10-23T13:08:33.863Z,83.49
2022-10-23T13:11:00.871Z,82.75
2022-10-23T13:13:27.706Z,82.58
2022-10-23T13:15:54.142Z,82.52
2022-10-23T13:18:20.541Z,83.07
2022-10-23T13:20:52.941Z,83.67
2022-10-23T13:23:27.872Z,83.58
2022-10-23T13:26:02.473Z,83.49
2022-10-23T13:28:35.078Z,83.74
2022-10-23T13:31:06.583Z,82.92
2022-10-23T13:33:45.055Z,82.82
2022-10-23T13:36:13.403Z,82.86
2022-10-23T13:38:43.215Z,82.51
2022-10-23T13:41:16.203Z,82.22
2022-10-23T13:43:43.910Z,83.04
2022-10-23T13:46:22.360Z,82.91
2022-10-23T13:48:49.235Z,82.46
2022-10-23T13:51:20.318Z,82.15
2022-10-23T13:53:46.828Z,82.39
2022-10-23T13:56:15.364Z,81.88
2022-10-23T13:58:42.108Z,81.19
2022-10-23T14:01:22.767Z,81.40
2022-10-23T14:03:50.601Z,81.63
2022-10-23T14:06:17.155Z,81.65
2022-10-23T14:08:43.531Z,80.84
2022-10-23T14:11:11.552Z,80.75
2022-10-23T14:13:38.636Z,80.54
2022-10-23T14:16:06.087Z,81.48
2022-10-23T14:18:32.456Z,81.90
2022-10-23T14:21:04.418Z,82.21
2022-10-23T14:23:31.064Z,81.54
2022-10-23T14:26:04.859Z,82.03
2022-10-23T14:28:31.489Z,80.92
2022-10-23T14:30:57.899Z,81.13
2022-10-23T14:33:26.583Z,81.59
2022-10-23T14:35:52.980Z,81.08
2022-10-23T14:38:19.337Z,80.80
2022-10-23T14:40:45.708Z,80.34
2022-10-23T14:43:12.179Z,80.64
2022-10-23T14:45:38.602Z,80.31
2022-10-23T14:48:05.348Z,80.76
2022-10-23T14:50:34.198Z,80.71
2022-10-23T14:55:31.847Z,81.77
2022-10-23T14:57:58.210Z,82.22
2022-10-23T15:00:24.763Z,82.25
2022-10-23T15:02:51.136Z,81.90
2022-10-23T15:05:17.881Z,81.80
2022-10-23T15:07:44.282Z,82.46
2022-10-23T15:10:10.948Z,82.52
2022-10-23T15:12:38.365Z,82.01
2022-10-23T15:15:06.705Z,82.55
2022-10-23T15:17:34.082Z,82.33
2022-10-23T15:20:01.031Z,82.86
2022-10-23T15:22:27.882Z,82.98
2022-10-23T15:24:55.036Z,83.42
2022-10-23T15:27:21.379Z,83.56
2022-10-23T15:29:47.770Z,83.82
2022-10-23T15:32:14.180Z,84.45
2022-10-23T15:34:42.687Z,84.50
2022-10-23T15:37:10.992Z,84.55
2022-10-23T15:39:37.363Z,84.66
2022-10-23T15:42:05.298Z,84.95
2022-10-23T15:44:33.015Z,85.05
2022-10-23T15:47:00.711Z,85.62
2022-10-23T15:49:31.492Z,85.53
2022-10-23T15:51:58.496Z,85.70
2022-10-23T15:54:28.046Z,85.72
2022-10-23T15:56:57.040Z,86.16
2022-10-23T15:59:24.907Z,86.02
2022-10-23T16:01:52.064Z,86.26
2022-10-23T16:04:18.591Z,86.09
2022-10-23T16:06:45.438Z,86.54
2022-10-23T16:09:11.860Z,86.52
2022-10-23T16:11:39.741Z,86.84
2022-10-23T16:14:06.230Z,86.64
2022-10-23T16:16:33.600Z,87.05
2022-10-23T16:19:01.269Z,87.15
2022-10-23T16:21:30.386Z,87.55
2022-10-23T16:23:58.492Z,87.67
2022-10-23T16:26:25.783Z,88.00
2022-10-23T16:28:54.158Z,87.86
2022-10-23T16:31:21.444Z,88.10
2022-10-23T16:33:48.429Z,88.17
2022-10-23T16:36:16.035Z,88.17
2022-10-23T16:38:42.420Z,88.50
2022-10-23T16:41:08.891Z,88.68
2022-10-23T16:43:35.305Z,88.83
2022-10-23T16:46:07.247Z,88.53
2022-10-23T16:48:34.974Z,89.01
2022-10-23T16:51:06.311Z,89.25
2022-10-23T16:53:33.401Z,89.11
2022-10-23T16:56:00.079Z,89.19
2022-10-23T16:58:26.943Z,89.47
2022-10-23T17:01:00.812Z,89.47
2022-10-23T17:03:28.274Z,89.48
2022-10-23T17:06:01.497Z,89.81
2022-10-23T17:08:28.902Z,89.64
2022-10-23T17:11:04.466Z,90.05
2022-10-23T17:13:30.842Z,90.09
2022-10-23T17:16:09.859Z,89.90
2022-10-23T17:18:39.834Z,90.06
2022-10-23T17:21:11.007Z,90.11
2022-10-23T17:23:37.520Z,89.95
2022-10-23T17:26:07.573Z,90.11
2022-10-23T17:28:39.667Z,89.91
2022-10-23T17:31:18.785Z,89.84
2022-10-23T17:33:46.440Z,90.21
2022-10-23T17:36:15.160Z,89.72
2022-10-23T17:38:43.487Z,90.05
2022-10-23T17:41:11.707Z,89.72
2022-10-23T17:43:38.679Z,89.71
2022-10-23T17:46:06.670Z,89.94
2022-10-23T17:48:33.156Z,89.65
2022-10-23T17:51:21.421Z,89.77
2022-10-23T17:53:50.012Z,90.08
2022-10-23T17:56:22.557Z,90.09
2022-10-23T17:58:50.542Z,90.19
2022-10-23T18:01:20.403Z,90.42
2022-10-23T18:03:47.171Z,90.39
2022-10-23T18:06:19.322Z,90.61
2022-10-23T18:08:46.506Z,90.86
2022-10-23T18:11:19.264Z,90.63
2022-10-23T18:13:46.237Z,90.63
2022-10-23T18:16:13.968Z,91.20
2022-10-23T18:18:42.871Z,90.91
2022-10-23T18:21:09.893Z,90.80
2022-10-23T18:23:36.838Z,91.08
2022-10-23T18:26:04.621Z,90.96
2022-10-23T18:28:31.480Z,90.95
2022-10-23T18:30:57.888Z,90.70
2022-10-23T18:33:24.538Z,90.58
2022-10-23T18:35:50.982Z,90.49
2022-10-23T18:38:17.366Z,90.75
2022-10-23T18:40:44.000Z,90.29
2022-10-23T18:43:14.942Z,90.21
2022-10-23T18:45:46.574Z,89.96
2022-10-23T18:48:13.520Z,90.08
2022-10-23T18:50:39.938Z,90.11
2022-10-23T18:53:06.280Z,90.71
2022-10-23T18:58:00.043Z,90.77
2022-10-23T19:00:26.452Z,90.65
2022-10-23T19:02:53.024Z,91.09
2022-10-23T19:05:19.722Z,91.37
2022-10-23T19:07:48.012Z,91.17
2022-10-23T19:10:17.879Z,91.26
2022-10-23T19:12:44.598Z,91.93
2022-10-23T19:15:11.355Z,91.75
2022-10-23T19:17:37.755Z,91.90
2022-10-23T19:20:14.671Z,92.88
2022-10-23T19:22:44.785Z,93.67
2022-10-23T19:25:15.347Z,94.01
2022-10-23T19:27:44.088Z,94.74
2022-10-23T19:30:13.571Z,95.41
2022-10-23T19:32:41.391Z,95.97
2022-10-23T19:35:08.724Z,96.10
2022-10-23T19:37:35.212Z,96.45
2022-10-23T19:40:06.381Z,96.36
2022-10-23T19:42:38.591Z,96.57
2022-10-23T19:45:07.316Z,96.38
2022-10-23T19:47:34.616Z,96.33
2022-10-23T19:50:01.010Z,96.65
2022-10-23T19:52:27.429Z,96.20
2022-10-23T19:54:53.847Z,96.80
2022-10-23T19:57:22.513Z,96.69
2022-10-23T19:59:50.927Z,97.06
2022-10-23T20:02:18.869Z,97.30
2022-10-23T20:04:45.591Z,96.79
2022-10-23T20:07:12.361Z,97.52
2022-10-23T20:09:38.756Z,97.50
2022-10-23T20:12:05.180Z,97.48
2022-10-23T20:14:31.688Z,97.50
2022-10-23T20:16:59.690Z,97.27
2022-10-23T20:19:26.105Z,97.40
2022-10-23T20:21:52.533Z,97.32
2022-10-23T20:24:20.445Z,96.37
2022-10-23T20:26:49.738Z,95.73
2022-10-23T20:29:16.464Z,94.79
2022-10-23T20:31:43.479Z,94.39
2022-10-23T20:34:10.927Z,93.75
2022-10-23T20:36:45.513Z,93.74
2022-10-23T20:39:16.736Z,93.66
2022-10-23T20:41:44.921Z,93.78
2022-10-23T20:44:13.862Z,93.48
2022-10-23T20:46:40.616Z,93.58
2022-10-23T20:49:07.155Z,93.05
2022-10-23T20:51:35.659Z,92.68
2022-10-23T20:54:02.417Z,92.30
2022-10-23T20:56:39.171Z,91.80
2022-10-23T20:59:14.718Z,92.24
2022-10-23T21:01:44.316Z,91.99
2022-10-23T21:04:14.171Z,91.52
2022-10-23T21:06:57.810Z,91.54
2022-10-23T21:09:31.172Z,91.74
2022-10-23T21:11:57.587Z,91.50
2022-10-23T21:14:23.935Z,91.01
2022-10-23T21:16:50.317Z,90.99
2022-10-23T21:19:16.673Z,91.00
2022-10-23T21:21:43.801Z,90.06
2022-10-23T21:24:17.068Z,90.26
2022-10-23T21:26:44.750Z,90.12
2022-10-23T21:29:20.007Z,90.25
2022-10-23T21:31:55.022Z,90.15
2022-10-23T21:34:22.260Z,90.34
2022-10-23T21:37:11.219Z,90.15
2022-10-23T21:39:35.095Z,90.51
2022-10-23T21:42:01.705Z,90.68
2022-10-23T21:44:28.102Z,90.38
2022-10-23T21:46:55.231Z,90.56
2022-10-23T21:49:21.655Z,90.77
2022-10-23T21:51:48.057Z,91.07
2022-10-23T21:54:17.281Z,91.08
2022-10-23T21:56:49.498Z,91.24
2022-10-23T21:59:19.050Z,91.54
2022-10-23T22:01:47.135Z,91.89
2022-10-23T22:04:15.129Z,92.02
2022-10-23T22:06:42.747Z,92.02
2022-10-23T22:09:11.352Z,92.31
2022-10-23T22:11:37.939Z,92.48
2022-10-23T22:14:04.650Z,92.30
2022-10-23T22:16:31.283Z,92.25
2022-10-23T22:18:57.843Z,92.33
2022-10-23T22:21:26.887Z,92.38
2022-10-23T22:23:58.232Z,92.56
2022-10-23T22:26:30.600Z,92.67
2022-10-23T22:29:03.160Z,92.92
2022-10-23T22:31:31.731Z,93.53
2022-10-23T22:33:58.768Z,93.44
2022-10-23T22:36:25.927Z,93.84
2022-10-23T22:38:53.070Z,94.20
2022-10-23T22:41:20.028Z,95.02
2022-10-23T22:43:46.583Z,95.63
2022-10-23T22:46:15.939Z,95.75
2022-10-23T22:48:43.163Z,95.82
2022-10-23T22:51:12.303Z,96.42
2022-10-23T22:53:38.745Z,96.64
2022-10-23T22:56:09.973Z,96.67
2022-10-23T22:58:36.786Z,97.08
2022-10-23T23:01:13.513Z,97.16
2022-10-23T23:03:40.063Z,97.23
2022-10-23T23:06:07.780Z,97.32
2022-10-23T23:08:35.266Z,97.20
2022-10-23T23:11:02.159Z,97.44
2022-10-23T23:13:28.921Z,97.22
2022-10-23T23:15:55.605Z,97.44
2022-10-23T23:18:22.438Z,97.31
2022-10-23T23:20:49.105Z,97.12
2022-10-23T23:23:16.304Z,96.74
2022-10-23T23:25:44.656Z,96.39
2022-10-23T23:28:12.545Z,96.40
2022-10-23T23:30:40.916Z,96.51
2022-10-23T23:33:08.562Z,96.34
2022-10-23T23:35:38.628Z,96.31
2022-10-23T23:38:05.006Z,96.08
2022-10-23T23:40:31.488Z,96.35
2022-10-23T23:42:57.818Z,96.59
2022-10-23T23:45:24.277Z,96.82
2022-10-23T23:47:50.635Z,96.85
2022-10-23T23:50:17.359Z,97.13
2022-10-23T23:52:44.175Z,97.28
2022-10-23T23:55:10.623Z,97.45
2022-10-23T23:57:37.256Z,97.51
